createdAt,value
2023-03-05T00:02:22.303Z,6.70
2023-03-05T00:05:23.909Z,6.78
2023-03-05T00:08:25.530Z,6.97
2023-03-05T00:11:29.921Z,6.47
2023-03-05T00:14:31.681Z,7.05
2023-03-05T00:17:36.301Z,7.40
2023-03-05T00:20:37.954Z,7.13
2023-03-05T00:23:39.529Z,6.95
2023-03-05T00:26:41.214Z,7.18
2023-03-05T00:29:42.785Z,7.67
2023-03-05T00:32:48.564Z,6.78
2023-03-05T00:35:53.198Z,6.82
2023-03-05T00:38:54.871Z,7.20
2023-03-05T00:42:00.633Z,7.03
2023-03-05T00:45:02.237Z,7.25
2023-03-05T00:48:04.257Z,8.00
2023-03-05T00:51:09.367Z,7.60
2023-03-05T00:54:10.988Z,7.07
2023-03-05T00:57:12.689Z,7.75
2023-03-05T01:00:18.380Z,7.40
2023-03-05T01:03:20.012Z,7.05
2023-03-05T01:06:21.654Z,7.45
2023-03-05T01:09:25.252Z,7.22
2023-03-05T01:12:26.883Z,7.35
2023-03-05T01:15:31.487Z,8.20
2023-03-05T01:18:33.125Z,8.20
2023-03-05T01:21:35.941Z,7.90
2023-03-05T01:24:37.561Z,7.88
2023-03-05T01:27:39.250Z,8.15
2023-03-05T01:30:44.616Z,7.20
2023-03-05T01:33:49.245Z,8.07
2023-03-05T01:36:50.845Z,7.97
2023-03-05T01:39:52.533Z,8.07
2023-03-05T01:43:06.960Z,8.02
2023-03-05T01:46:35.620Z,7.85
2023-03-05T01:49:38.931Z,7.57
2023-03-05T01:52:41.801Z,7.70
2023-03-05T01:55:43.399Z,7.80
2023-03-05T01:58:45.456Z,7.35
2023-03-05T02:01:55.096Z,6.90
2023-03-05T02:05:05.247Z,7.38
2023-03-05T02:08:08.476Z,7.40
2023-03-05T02:11:10.165Z,6.82
2023-03-05T02:14:11.865Z,7.07
2023-03-05T02:17:16.347Z,6.95
2023-03-05T02:20:23.004Z,7.20
2023-03-05T02:23:29.938Z,6.87
2023-03-05T02:26:31.525Z,7.18
2023-03-05T02:29:33.951Z,6.72
2023-03-05T02:32:35.582Z,6.80
2023-03-05T02:35:40.437Z,6.60
2023-03-05T02:38:42.250Z,6.68
2023-03-05T02:41:43.831Z,6.75
2023-03-05T02:44:45.467Z,6.57
2023-03-05T02:47:50.779Z,6.90
2023-03-05T02:50:52.397Z,6.85
2023-03-05T02:53:57.315Z,7.70
2023-03-05T02:56:58.977Z,6.78
2023-03-05T03:00:00.693Z,6.43
2023-03-05T03:03:06.690Z,6.50
2023-03-05T03:06:08.378Z,6.93
2023-03-05T03:09:09.957Z,7.50
2023-03-05T03:12:11.782Z,6.60
2023-03-05T03:15:14.686Z,6.68
2023-03-05T03:18:16.313Z,6.20
2023-03-05T03:21:25.323Z,6.28
2023-03-05T03:24:27.161Z,7.00
2023-03-05T03:27:28.754Z,6.50
2023-03-05T03:30:30.385Z,7.38
2023-03-05T03:33:32.042Z,6.50
2023-03-05T03:36:37.599Z,6.60
2023-03-05T03:39:42.377Z,6.53
2023-03-05T03:42:43.994Z,7.20
2023-03-05T03:45:45.653Z,6.63
2023-03-05T03:48:53.340Z,7.30
2023-03-05T03:51:54.968Z,6.85
2023-03-05T03:55:04.410Z,6.63
2023-03-05T03:58:06.111Z,6.97
2023-03-05T04:01:07.739Z,7.55
2023-03-05T04:04:13.841Z,7.53
2023-03-05T04:07:15.531Z,7.65
2023-03-05T04:10:17.659Z,8.77
2023-03-05T04:13:19.345Z,8.05
2023-03-05T04:16:20.952Z,7.38
2023-03-05T04:19:26.963Z,7.47
2023-03-05T04:22:28.574Z,8.00
2023-03-05T04:25:30.169Z,7.43
2023-03-05T04:28:31.953Z,7.65
2023-03-05T04:31:33.569Z,7.68
2023-03-05T04:34:41.005Z,7.83
2023-03-05T04:37:45.605Z,6.90
2023-03-05T04:40:47.267Z,6.95
2023-03-05T04:43:48.906Z,6.97
2023-03-05T04:46:50.596Z,8.05
2023-03-05T04:49:55.966Z,6.75
2023-03-05T04:52:57.718Z,7.07
2023-03-05T04:56:01.561Z,6.83
2023-03-05T04:59:03.444Z,6.22
2023-03-05T05:02:05.236Z,6.05
2023-03-05T05:05:07.084Z,6.77
2023-03-05T05:08:12.895Z,6.55
2023-03-05T05:11:14.633Z,6.85
2023-03-05T05:14:16.553Z,6.00
2023-03-05T05:17:18.194Z,6.78
2023-03-05T05:20:20.080Z,6.57
2023-03-05T05:23:26.039Z,7.30
2023-03-05T05:26:27.939Z,6.70
2023-03-05T05:29:29.568Z,7.05
2023-03-05T05:32:31.289Z,6.72
2023-03-05T05:35:33.019Z,6.77
2023-03-05T05:38:38.328Z,5.90
2023-03-05T05:41:43.822Z,6.43
2023-03-05T05:44:45.484Z,6.15
2023-03-05T05:47:50.370Z,6.45
2023-03-05T05:50:55.864Z,6.50
2023-03-05T05:53:57.611Z,6.82
2023-03-05T05:56:59.233Z,6.97
2023-03-05T06:00:00.900Z,6.75
2023-03-05T06:03:02.562Z,7.13
2023-03-05T06:06:10.870Z,6.93
2023-03-05T06:09:15.489Z,7.10
2023-03-05T06:12:17.076Z,7.45
2023-03-05T06:15:23.831Z,7.45
2023-03-05T06:18:25.596Z,6.63
2023-03-05T06:21:27.291Z,6.70
2023-03-05T06:24:33.158Z,6.97
2023-03-05T06:27:35.254Z,6.80
2023-03-05T06:30:36.987Z,6.82
2023-03-05T06:33:38.829Z,6.90
2023-03-05T06:36:43.523Z,7.03
2023-03-05T06:39:45.233Z,7.75
2023-03-05T06:42:46.862Z,7.18
2023-03-05T06:45:48.478Z,7.57
2023-03-05T06:48:50.765Z,7.00
2023-03-05T06:51:55.779Z,6.90
2023-03-05T06:54:57.358Z,8.13
2023-03-05T06:57:58.982Z,7.30
2023-03-05T07:01:00.754Z,7.85
2023-03-05T07:04:03.221Z,7.05
2023-03-05T07:07:08.938Z,7.82
2023-03-05T07:10:11.132Z,7.80
2023-03-05T07:13:12.714Z,8.15
2023-03-05T07:16:18.620Z,7.90
2023-03-05T07:19:20.258Z,7.97
2023-03-05T07:22:21.859Z,7.68
2023-03-05T07:25:24.561Z,7.85
2023-03-05T07:28:26.193Z,8.67
2023-03-05T07:31:31.100Z,8.40
2023-03-05T07:34:32.914Z,8.13
2023-03-05T07:37:34.536Z,8.52
2023-03-05T07:40:39.898Z,8.50
2023-03-05T07:43:44.538Z,8.52
2023-03-05T07:46:46.304Z,7.97
2023-03-05T07:49:47.967Z,8.48
2023-03-05T07:52:49.646Z,8.07
2023-03-05T07:55:51.244Z,8.55
2023-03-05T07:58:53.084Z,8.20
2023-03-05T08:01:54.723Z,8.27
2023-03-05T08:04:56.441Z,8.23
2023-03-05T08:08:01.657Z,8.35
2023-03-05T08:11:07.715Z,8.05
2023-03-05T08:14:09.506Z,8.50
2023-03-05T08:17:11.115Z,7.65
2023-03-05T08:20:13.295Z,8.07
2023-03-05T08:23:15.272Z,8.23
2023-03-05T08:26:19.230Z,8.55
2023-03-05T08:29:20.925Z,8.52
2023-03-05T08:32:22.706Z,8.60
2023-03-05T08:35:24.748Z,8.87
2023-03-05T08:38:26.845Z,7.85
2023-03-05T08:41:31.676Z,8.10
2023-03-05T08:44:37.293Z,8.63
2023-03-05T08:47:39.024Z,8.20
2023-03-05T08:50:40.610Z,8.73
2023-03-05T08:53:45.601Z,9.02
2023-03-05T08:56:47.260Z,8.07
2023-03-05T08:59:53.029Z,7.88
2023-03-05T09:02:54.900Z,8.48
2023-03-05T09:06:01.153Z,7.70
2023-03-05T09:09:06.130Z,7.83
2023-03-05T09:12:08.670Z,8.10
2023-03-05T09:15:16.090Z,8.10
2023-03-05T09:18:17.801Z,7.75
2023-03-05T09:21:19.547Z,8.63
2023-03-05T09:24:24.592Z,7.95
2023-03-05T09:27:30.071Z,8.85
2023-03-05T09:30:31.670Z,7.57
2023-03-05T09:33:33.358Z,8.00
2023-03-05T09:36:35.184Z,7.38
2023-03-05T09:39:36.965Z,8.00
2023-03-05T09:42:47.661Z,7.93
2023-03-05T09:46:13.474Z,7.85
2023-03-05T09:49:29.533Z,7.97
2023-03-05T09:52:59.171Z,8.52
2023-03-05T09:56:14.274Z,9.23
2023-03-05T09:59:36.037Z,7.17
2023-03-05T10:02:38.152Z,7.20
2023-03-05T10:06:20.271Z,7.63
2023-03-05T10:09:44.259Z,7.57
2023-03-05T10:12:46.978Z,7.47
2023-03-05T10:16:06.966Z,7.43
2023-03-05T10:19:29.425Z,7.43
2023-03-05T10:22:36.761Z,7.95
2023-03-05T10:26:01.365Z,7.45
2023-03-05T10:29:21.208Z,7.13
2023-03-05T10:32:37.969Z,7.30
2023-03-05T10:35:52.135Z,7.25
2023-03-05T10:39:05.766Z,7.53
2023-03-05T10:42:23.796Z,7.53
2023-03-05T10:45:32.978Z,7.28
2023-03-05T10:48:35.894Z,7.50
2023-03-05T10:51:54.169Z,6.88
2023-03-05T10:55:00.253Z,7.50
2023-03-05T10:58:02.547Z,6.13
2023-03-05T11:01:10.212Z,5.60
2023-03-05T11:04:28.940Z,6.95
2023-03-05T11:07:32.942Z,6.35
2023-03-05T11:10:37.725Z,5.97
2023-03-05T11:13:51.935Z,7.10
2023-03-05T11:16:56.842Z,6.30
2023-03-05T11:19:58.883Z,6.35
2023-03-05T11:23:24.827Z,5.93
2023-03-05T11:26:29.571Z,6.35
2023-03-05T11:29:31.967Z,5.70
2023-03-05T11:32:37.108Z,6.03
2023-03-05T11:35:40.158Z,6.07
2023-03-05T11:39:12.261Z,5.55
2023-03-05T11:42:18.838Z,6.20
2023-03-05T11:45:24.391Z,6.00
2023-03-05T11:48:28.602Z,5.55
2023-03-05T11:51:53.409Z,5.28
2023-03-05T11:55:08.816Z,5.50
2023-03-05T11:58:25.041Z,5.28
2023-03-05T12:01:28.584Z,5.43
2023-03-05T12:04:30.356Z,5.53
2023-03-05T12:07:37.578Z,6.30
2023-03-05T12:10:42.711Z,5.30
2023-03-05T12:13:46.749Z,5.22
2023-03-05T12:17:01.865Z,5.10
2023-03-05T12:20:14.037Z,5.55
2023-03-05T12:23:20.396Z,5.47
2023-03-05T12:26:57.129Z,5.30
2023-03-05T12:30:05.348Z,5.43
2023-03-05T12:33:13.304Z,5.37
2023-03-05T12:36:21.151Z,5.32
2023-03-05T12:39:52.687Z,5.20
2023-03-05T12:43:04.439Z,4.75
2023-03-05T12:46:34.214Z,4.93
2023-03-05T12:49:42.378Z,5.23
2023-03-05T12:52:43.978Z,5.28
2023-03-05T12:55:49.086Z,5.60
2023-03-05T12:58:55.704Z,4.63
2023-03-05T13:01:59.384Z,4.90
2023-03-05T13:05:03.320Z,4.85
2023-03-05T13:08:24.148Z,4.88
2023-03-05T13:11:25.709Z,4.32
2023-03-05T13:14:37.520Z,4.40
2023-03-05T13:17:57.423Z,4.45
2023-03-05T13:21:11.768Z,4.97
2023-03-05T13:24:17.500Z,4.85
2023-03-05T13:27:24.772Z,5.50
2023-03-05T13:30:27.820Z,5.23
2023-03-05T13:33:34.896Z,5.10
2023-03-05T13:36:37.362Z,4.88
2023-03-05T13:40:02.452Z,5.60
2023-03-05T13:43:15.767Z,5.00
2023-03-05T13:46:32.998Z,5.07
2023-03-05T13:49:34.715Z,6.40
2023-03-05T13:52:37.621Z,5.90
2023-03-05T13:55:39.295Z,5.67
2023-03-05T13:58:52.535Z,5.80
2023-03-05T14:01:57.881Z,6.40
2023-03-05T14:04:59.560Z,5.50
2023-03-05T14:08:01.225Z,5.70
2023-03-05T14:11:13.486Z,6.30
2023-03-05T14:14:19.943Z,5.38
2023-03-05T14:17:27.717Z,5.95
2023-03-05T14:20:29.770Z,5.60
2023-03-05T14:23:40.625Z,5.20
2023-03-05T14:26:48.937Z,5.60
2023-03-05T14:29:53.798Z,6.18
2023-03-05T14:32:59.320Z,5.82
2023-03-05T14:36:01.009Z,5.20
2023-03-05T14:39:05.846Z,6.55
2023-03-05T14:42:27.246Z,6.35
2023-03-05T14:45:40.328Z,5.57
2023-03-05T14:48:44.907Z,6.57
2023-03-05T14:51:46.626Z,6.20
2023-03-05T14:54:48.258Z,5.70
2023-03-05T14:57:55.137Z,6.32
2023-03-05T15:00:57.064Z,5.50
2023-03-05T15:03:58.689Z,5.97
2023-03-05T15:07:00.354Z,5.75
2023-03-05T15:10:01.916Z,5.85
2023-03-05T15:13:08.287Z,5.67
2023-03-05T15:16:12.042Z,6.03
2023-03-05T15:19:17.540Z,6.15
2023-03-05T15:22:19.264Z,7.05
2023-03-05T15:25:21.675Z,6.70
2023-03-05T15:28:26.901Z,6.97
2023-03-05T15:31:33.325Z,6.32
2023-03-05T15:34:35.070Z,6.72
2023-03-05T15:37:39.791Z,7.00
2023-03-05T15:40:41.434Z,7.50
2023-03-05T15:43:43.039Z,7.45
2023-03-05T15:46:48.247Z,7.10
2023-03-05T15:49:49.933Z,7.38
2023-03-05T15:52:51.669Z,7.35
2023-03-05T15:55:53.316Z,7.53
2023-03-05T15:58:58.613Z,8.00
2023-03-05T16:02:00.375Z,7.80
2023-03-05T16:05:02.064Z,7.88
2023-03-05T16:08:03.792Z,8.20
2023-03-05T16:11:05.508Z,7.65
2023-03-05T16:14:12.683Z,8.18
2023-03-05T16:17:19.981Z,7.78
2023-03-05T16:20:21.696Z,7.95
2023-03-05T16:23:23.355Z,7.20
2023-03-05T16:26:25.300Z,7.18
2023-03-05T16:29:32.169Z,7.85
2023-03-05T16:32:33.936Z,7.85
2023-03-05T16:35:35.626Z,7.35
2023-03-05T16:38:40.290Z,7.15
2023-03-05T16:41:41.981Z,7.67
2023-03-05T16:44:43.819Z,6.88
2023-03-05T16:47:48.999Z,6.55
2023-03-05T16:50:50.579Z,6.88
2023-03-05T16:53:52.343Z,6.93
2023-03-05T16:56:53.977Z,6.95
2023-03-05T16:59:56.382Z,6.57
2023-03-05T17:03:01.279Z,7.03
2023-03-05T17:06:02.858Z,7.17
2023-03-05T17:09:04.578Z,7.55
2023-03-05T17:12:06.424Z,7.40
2023-03-05T17:15:08.503Z,7.55
2023-03-05T17:18:14.449Z,7.50
2023-03-05T17:21:16.196Z,6.70
2023-03-05T17:24:20.168Z,6.68
2023-03-05T17:27:23.399Z,6.63
2023-03-05T17:30:28.353Z,7.10
2023-03-05T17:33:31.104Z,6.10
2023-03-05T17:36:34.003Z,5.95
2023-03-05T17:39:35.588Z,6.32
2023-03-05T17:42:37.193Z,7.00
2023-03-05T17:45:42.878Z,6.93
2023-03-05T17:48:44.578Z,7.38
2023-03-05T17:51:50.042Z,7.50
2023-03-05T17:54:53.210Z,6.93
2023-03-05T17:57:54.875Z,6.82
2023-03-05T18:01:00.250Z,6.32
2023-03-05T18:04:05.699Z,6.70
2023-03-05T18:07:07.456Z,6.03
2023-03-05T18:10:09.676Z,6.70
2023-03-05T18:13:11.323Z,6.30
2023-03-05T18:16:16.860Z,6.25
2023-03-05T18:19:22.422Z,6.10
2023-03-05T18:22:24.032Z,6.40
2023-03-05T18:25:31.134Z,6.28
2023-03-05T18:28:33.049Z,5.72
2023-03-05T18:31:34.694Z,6.43
2023-03-05T18:34:39.198Z,6.05
2023-03-05T18:37:40.800Z,5.82
2023-03-05T18:40:47.496Z,5.43
2023-03-05T18:43:50.527Z,5.67
2023-03-05T18:46:52.113Z,5.53
2023-03-05T18:49:58.682Z,5.53
2023-03-05T18:53:03.267Z,5.40
2023-03-05T18:56:05.128Z,5.97
2023-03-05T18:59:06.734Z,5.53
2023-03-05T19:02:17.998Z,5.82
2023-03-05T19:05:19.989Z,5.32
2023-03-05T19:08:21.604Z,5.60
2023-03-05T19:11:23.302Z,5.50
2023-03-05T19:14:24.906Z,5.60
2023-03-05T19:17:29.398Z,5.43
2023-03-05T19:20:30.988Z,5.47
2023-03-05T19:23:36.810Z,5.68
2023-03-05T19:26:39.379Z,5.47
2023-03-05T19:29:41.670Z,5.65
2023-03-05T19:32:46.161Z,5.83
2023-03-05T19:35:49.977Z,6.43
2023-03-05T19:38:54.436Z,6.10
2023-03-05T19:41:59.092Z,5.88
2023-03-05T19:45:01.719Z,6.10
2023-03-05T19:48:06.513Z,5.65
2023-03-05T19:51:19.729Z,6.00
2023-03-05T19:54:24.348Z,6.00
2023-03-05T19:57:26.005Z,6.20
2023-03-05T20:00:30.348Z,5.97
2023-03-05T20:03:31.937Z,6.43
2023-03-05T20:06:37.037Z,6.90
2023-03-05T20:09:38.687Z,6.53
2023-03-05T20:12:40.398Z,6.22
2023-03-05T20:15:42.317Z,6.18
2023-03-05T20:18:44.123Z,5.53
2023-03-05T20:21:49.260Z,6.43
2023-03-05T20:24:50.819Z,5.13
2023-03-05T20:27:56.708Z,6.38
2023-03-05T20:30:59.587Z,6.07
2023-03-05T20:34:04.148Z,5.43
2023-03-05T20:37:11.459Z,5.22
2023-03-05T20:40:13.362Z,5.63
2023-03-05T20:43:18.083Z,5.60
2023-03-05T20:46:29.860Z,5.50
2023-03-05T20:49:31.456Z,5.45
2023-03-05T20:52:36.403Z,5.35
2023-03-05T20:55:37.993Z,5.70
2023-03-05T20:58:43.830Z,5.43
2023-03-05T21:01:45.548Z,5.75
2023-03-05T21:04:47.336Z,5.47
2023-03-05T21:07:55.678Z,5.10
2023-03-05T21:10:58.148Z,5.38
2023-03-05T21:14:03.287Z,5.70
2023-03-05T21:17:05.163Z,5.78
2023-03-05T21:20:11.599Z,5.70
2023-03-05T21:23:13.180Z,6.03
2023-03-05T21:26:15.254Z,6.80
2023-03-05T21:29:17.039Z,6.93
2023-03-05T21:32:19.705Z,7.07
2023-03-05T21:35:25.726Z,7.40
2023-03-05T21:38:33.907Z,7.25
2023-03-05T21:41:35.566Z,7.30
2023-03-05T21:44:40.359Z,6.18
2023-03-05T21:47:41.941Z,6.30
2023-03-05T21:50:48.696Z,6.03
2023-03-05T21:53:50.352Z,6.00
2023-03-05T21:56:51.970Z,5.75
2023-03-05T21:59:53.812Z,5.68
2023-03-05T22:02:55.407Z,6.18
2023-03-05T22:06:00.919Z,5.90
2023-03-05T22:09:02.596Z,5.97
2023-03-05T22:13:08.198Z,5.93
2023-03-05T22:16:10.036Z,5.68
2023-03-05T22:19:11.683Z,5.77
2023-03-05T22:22:13.273Z,5.82
2023-03-05T22:25:15.367Z,6.57
2023-03-05T22:28:17.053Z,5.47
2023-03-05T22:31:26.328Z,6.10
2023-03-05T22:34:29.064Z,5.80
2023-03-05T22:37:30.765Z,5.47
2023-03-05T22:40:32.399Z,5.40
2023-03-05T22:43:34.000Z,6.18
2023-03-05T22:46:35.581Z,6.38
2023-03-05T22:49:37.199Z,5.28
2023-03-05T22:52:38.987Z,5.80
2023-03-05T22:55:41.183Z,6.05
2023-03-05T22:58:42.906Z,6.07
2023-03-05T23:01:44.572Z,5.60
2023-03-05T23:04:49.608Z,5.53
2023-03-05T23:07:51.365Z,5.93
2023-03-05T23:10:53.011Z,5.28
2023-03-05T23:13:54.661Z,5.28
2023-03-05T23:16:56.253Z,5.47
2023-03-05T23:19:57.866Z,5.22
2023-03-05T23:22:59.616Z,5.38
2023-03-05T23:26:04.589Z,4.57
2023-03-05T23:29:09.181Z,4.85
2023-03-05T23:32:10.784Z,4.72
2023-03-05T23:35:13.878Z,4.55
2023-03-05T23:38:18.518Z,5.03
2023-03-05T23:41:20.123Z,5.00
2023-03-05T23:44:25.926Z,5.20
2023-03-05T23:47:27.568Z,4.35
2023-03-05T23:50:31.696Z,4.27
2023-03-05T23:53:36.143Z,3.85
2023-03-05T23:56:37.729Z,4.47
2023-03-05T23:59:39.391Z,5.22
